TimeEST,TemperatureF,Dew PointF,Humidity,Sea Level PressureIn,VisibilityMPH,Wind Direction,Wind SpeedMPH,Gust SpeedMPH,PrecipitationIn,Events,Conditions,WindDirDegrees,DateUTC
12:52 AM,28.0,23.0,81,30.20,10.0,Calm,Calm,-,N/A,,Clear,0,2012-12-12 05:52:00
1:52 AM,28.0,23.0,81,30.22,10.0,Calm,Calm,-,N/A,,Clear,0,2012-12-12 06:52:00
2:52 AM,27.0,23.0,85,30.25,10.0,Calm,Calm,-,N/A,,Clear,0,2012-12-12 07:52:00
3:52 AM,28.0,23.0,81,30.25,10.0,Calm,Calm,-,N/A,,Clear,0,2012-12-12 08:52:00
4:52 AM,27.0,21.9,81,30.27,10.0,Calm,Calm,-,N/A,,Clear,0,2012-12-12 09:52:00
5:52 AM,27.0,21.9,81,30.29,10.0,Calm,Calm,-,N/A,,Clear,0,2012-12-12 10:52:00
6:52 AM,27.0,23.0,85,30.32,9.0,Calm,Calm,-,N/A,,Clear,0,2012-12-12 11:52:00
7:52 AM,26.1,23.0,88,30.34,7.0,Calm,Calm,-,N/A,,Clear,0,2012-12-12 12:52:00
8:09 AM,26.6,23.0,86,30.27,10.0,Calm,Calm,-,N/A,,Mostly Cloudy,0,2012-12-12 13:09:00
8:52 AM,28.0,23.0,81,30.34,10.0,ENE,3.5,-,N/A,,Overcast,70,2012-12-12 13:52:00
9:52 AM,30.0,23.0,75,30.34,10.0,ENE,4.6,-,N/A,,Overcast,60,2012-12-12 14:52:00
10:24 AM,30.2,24.8,80,30.29,10.0,East,4.6,-,N/A,,Partly Cloudy,80,2012-12-12 15:24:00
10:52 AM,30.9,24.1,76,30.35,10.0,East,4.6,-,N/A,,Clear,80,2012-12-12 15:52:00
11:52 AM,33.1,25.0,72,30.35,10.0,Calm,Calm,-,N/A,,Clear,0,2012-12-12 16:52:00
12:52 PM,34.0,26.1,73,30.32,10.0,Variable,3.5,-,N/A,,Clear,0,2012-12-12 17:52:00
1:52 PM,35.1,26.1,70,30.30,10.0,ENE,4.6,-,N/A,,Clear,70,2012-12-12 18:52:00
2:52 PM,35.1,27.0,72,30.30,10.0,East,4.6,-,N/A,,Clear,80,2012-12-12 19:52:00
3:52 PM,34.0,26.1,73,30.32,10.0,Calm,Calm,-,N/A,,Clear,0,2012-12-12 20:52:00
4:52 PM,34.0,26.1,73,30.33,10.0,Calm,Calm,-,N/A,,Clear,0,2012-12-12 21:52:00
5:52 PM,33.1,26.1,75,30.33,10.0,East,3.5,-,N/A,,Clear,90,2012-12-12 22:52:00
6:52 PM,32.0,26.1,79,30.34,10.0,East,3.5,-,N/A,,Clear,100,2012-12-12 23:52:00
7:52 PM,30.9,26.1,82,30.36,10.0,Calm,Calm,-,N/A,,Clear,0,2012-12-13 00:52:00
8:52 PM,30.0,26.1,85,30.35,10.0,East,3.5,-,N/A,,Clear,100,2012-12-13 01:52:00
9:52 PM,30.0,26.1,85,30.34,10.0,East,3.5,-,N/A,,Clear,100,2012-12-13 02:52:00
10:52 PM,30.0,26.1,85,30.33,10.0,East,4.6,-,N/A,,Clear,80,2012-12-13 03:52:00
11:52 PM,28.9,25.0,85,30.35,8.0,ESE,3.5,-,N/A,,Clear,120,2012-12-13 04:52:00